Terminal Aerodrome Forecast
Issued by NWS Norman, OK

Home | Current Version | Previous Version | Text Only | Print | Product List | Glossary On
Versions: 1 2 3 4 5 6 7 8 9 10 11 12 13 14 15 16 17 18 19 20 21 22 23 24 25 26 27 28 29 30 31 32
000
FTUS44 KOUN 191722
TAFOKC
TAF
KOKC 191722Z 1918/2018 17008KT P6SM SCT020 SCT250
     FM200900 15004KT 4SM BR BKN020
      TEMPO 2010/2014 1SM BR BKN007
     FM201500 17008KT P6SM BKN015=

USA.gov is the U.S. government's official web portal to all federal, state and local government web resources and services.